createdAt,value
2019-05-02T00:04:36.695Z,62.45
2019-05-02T00:07:25.581Z,68.05
2019-05-02T00:13:29.433Z,65.78
2019-05-02T00:19:33.376Z,61.75
2019-05-02T00:22:22.282Z,56.10
2019-05-02T00:25:15.823Z,71.33
2019-05-02T00:28:01.868Z,61.70
2019-05-02T00:30:50.669Z,59.58
2019-05-02T00:33:39.588Z,71.53
2019-05-02T00:36:28.405Z,64.97
2019-05-02T00:39:17.307Z,65.03
2019-05-02T00:42:12.884Z,73.85
2019-05-02T00:44:56.790Z,67.80
2019-05-02T00:50:45.291Z,64.22
2019-05-02T00:53:32.115Z,60.73
2019-05-02T00:56:14.102Z,65.78
2019-05-02T00:59:07.534Z,64.22
2019-05-02T01:02:12.524Z,60.33
2019-05-02T01:05:03.189Z,69.32
2019-05-02T01:07:55.896Z,63.05
2019-05-02T01:10:42.537Z,66.75
2019-05-02T01:13:31.361Z,60.83
2019-05-02T01:16:20.339Z,72.05
2019-05-02T01:19:12.226Z,56.90
2019-05-02T01:21:59.836Z,68.47
2019-05-02T01:24:48.749Z,70.17
2019-05-02T01:31:06.149Z,63.05
2019-05-02T01:34:17.972Z,58.75
2019-05-02T01:37:23.591Z,60.40
2019-05-02T01:40:13.041Z,55.63
2019-05-02T01:43:25.521Z,58.68
2019-05-02T01:46:16.958Z,60.98
2019-05-02T01:49:05.624Z,55.58
2019-05-02T01:51:54.445Z,60.63
2019-05-02T01:54:45.664Z,58.28
2019-05-02T01:57:26.784Z,66.00
2019-05-02T02:00:15.699Z,58.68
2019-05-02T02:03:09.040Z,57.88
2019-05-02T02:05:55.369Z,61.88
2019-05-02T02:08:44.172Z,58.58
2019-05-02T02:11:33.805Z,50.63
2019-05-02T02:14:23.608Z,59.03
2019-05-02T02:17:15.626Z,55.20
2019-05-02T02:23:31.690Z,49.00
2019-05-02T02:26:39.556Z,57.23
2019-05-02T02:29:28.384Z,59.30
2019-05-02T02:32:20.282Z,52.00
2019-05-02T02:35:10.218Z,64.10
2019-05-02T02:37:58.405Z,57.80
2019-05-02T02:40:47.252Z,52.38
2019-05-02T02:43:36.063Z,61.98
2019-05-02T02:49:24.041Z,59.95
2019-05-02T02:52:11.344Z,57.70
2019-05-02T02:54:52.770Z,56.53
2019-05-02T02:57:41.588Z,51.63
2019-05-02T03:00:30.524Z,51.05
2019-05-02T03:03:20.695Z,53.70
2019-05-02T03:06:09.921Z,53.38
2019-05-02T03:12:26.852Z,65.90
2019-05-02T03:18:26.966Z,56.35
2019-05-02T03:21:20.787Z,62.30
2019-05-02T03:24:06.592Z,54.40
2019-05-02T03:26:57.968Z,63.75
2019-05-02T03:29:46.314Z,65.32
2019-05-02T03:32:36.307Z,57.90
2019-05-02T03:35:40.823Z,63.52
2019-05-02T03:38:16.865Z,57.08
2019-05-02T03:41:05.806Z,67.08
2019-05-02T03:44:09.829Z,58.40
2019-05-02T03:46:45.315Z,49.30
2019-05-02T03:49:34.230Z,50.43
2019-05-02T03:52:23.136Z,57.27
2019-05-02T03:55:12.038Z,57.05
2019-05-02T04:01:15.700Z,49.38
2019-05-02T04:04:04.872Z,57.50
2019-05-02T04:06:54.997Z,56.77
2019-05-02T04:09:44.410Z,55.33
2019-05-02T04:12:58.329Z,64.07
2019-05-02T04:25:33.923Z,60.15
2019-05-02T04:28:20.042Z,68.83
2019-05-02T04:31:08.883Z,60.73
2019-05-02T04:33:57.729Z,68.22
2019-05-02T04:36:47.478Z,61.25
2019-05-02T04:39:39.069Z,58.42
2019-05-02T04:42:29.446Z,53.87
2019-05-02T04:45:28.206Z,58.08
2019-05-02T04:48:08.965Z,65.60
2019-05-02T04:51:01.908Z,62.30
2019-05-02T04:53:49.872Z,59.77
2019-05-02T04:56:32.239Z,66.42
2019-05-02T04:59:22.866Z,62.55
2019-05-02T05:02:11.627Z,67.35
2019-05-02T05:05:00.515Z,66.60
2019-05-02T05:07:49.585Z,62.67
2019-05-02T05:10:41.369Z,58.73
2019-05-02T05:13:30.494Z,56.33
2019-05-02T05:16:19.322Z,70.00
2019-05-02T05:19:08.172Z,67.08
2019-05-02T05:22:04.423Z,65.47
2019-05-02T05:25:07.454Z,62.62
2019-05-02T05:28:03.412Z,66.85
2019-05-02T05:30:49.665Z,70.55
2019-05-02T05:33:38.470Z,61.28
2019-05-02T05:36:32.514Z,67.82
2019-05-02T05:39:17.903Z,63.28
2019-05-02T05:42:10.330Z,58.08
2019-05-02T05:44:58.337Z,55.17
2019-05-02T05:47:48.016Z,64.93
2019-05-02T05:50:40.175Z,60.00
2019-05-02T05:53:28.168Z,64.50
2019-05-02T05:56:10.964Z,57.67
2019-05-02T05:58:59.826Z,65.10
2019-05-02T06:01:51.536Z,52.80
2019-05-02T06:04:39.257Z,59.65
2019-05-02T06:07:28.195Z,62.17
2019-05-02T06:10:17.199Z,60.13
2019-05-02T06:13:10.996Z,60.43
2019-05-02T06:16:02.878Z,60.10
2019-05-02T06:18:47.294Z,61.10
2019-05-02T06:21:39.977Z,62.47
2019-05-02T06:24:26.775Z,56.07
2019-05-02T06:27:15.624Z,63.73
2019-05-02T06:30:27.143Z,62.53
2019-05-02T06:33:15.915Z,52.80
2019-05-02T06:36:04.884Z,55.23
2019-05-02T06:38:56.632Z,55.33
2019-05-02T06:41:44.280Z,47.40
2019-05-02T06:44:33.137Z,44.23
2019-05-02T06:47:22.139Z,42.07
2019-05-02T06:50:11.271Z,38.23
2019-05-02T06:53:04.288Z,34.03
2019-05-02T06:55:44.303Z,41.70
2019-05-02T06:58:37.188Z,29.93
2019-05-02T07:01:23.848Z,36.37
2019-05-02T07:04:17.379Z,44.53
2019-05-02T07:07:03.380Z,41.27
2019-05-02T07:09:54.426Z,45.67
2019-05-02T07:12:46.199Z,45.87
2019-05-02T07:15:52.988Z,49.97
2019-05-02T07:19:00.859Z,50.73
2019-05-02T07:21:53.201Z,39.90
2019-05-02T07:24:40.547Z,35.67
2019-05-02T07:27:33.775Z,34.47
2019-05-02T07:30:20.099Z,35.97
2019-05-02T07:33:08.948Z,37.17
2019-05-02T07:36:00.171Z,40.90
2019-05-02T07:38:48.452Z,41.30
2019-05-02T07:41:37.365Z,49.20
2019-05-02T07:44:27.067Z,46.67
2019-05-02T07:47:16.779Z,47.50
2019-05-02T07:53:34.066Z,48.17
2019-05-02T07:56:17.544Z,62.47
2019-05-02T07:59:06.771Z,52.03
2019-05-02T08:01:55.692Z,48.70
2019-05-02T08:04:44.932Z,52.33
2019-05-02T08:07:35.214Z,52.03
2019-05-02T08:10:24.137Z,49.70
2019-05-02T08:13:17.484Z,48.57
2019-05-02T08:16:03.504Z,49.57
2019-05-02T08:18:52.402Z,47.30
2019-05-02T08:21:41.253Z,50.07
2019-05-02T08:24:33.038Z,56.73
2019-05-02T08:27:22.985Z,54.27
2019-05-02T08:33:29.129Z,48.97
2019-05-02T08:36:17.024Z,51.27
2019-05-02T08:39:33.210Z,53.33
2019-05-02T08:42:17.294Z,46.10
2019-05-02T08:45:27.032Z,43.10
2019-05-02T08:48:15.866Z,47.70
2019-05-02T08:51:04.780Z,44.97
2019-05-02T08:53:56.756Z,41.77
2019-05-02T08:56:37.634Z,43.80
2019-05-02T08:59:26.470Z,44.63
2019-05-02T09:02:15.310Z,40.33
2019-05-02T09:08:32.513Z,40.07
2019-05-02T09:11:21.341Z,36.37
2019-05-02T09:14:12.465Z,35.30
2019-05-02T09:17:08.470Z,40.87
2019-05-02T09:20:01.911Z,36.47
2019-05-02T09:22:41.971Z,36.77
2019-05-02T09:25:32.427Z,32.00
2019-05-02T09:28:22.613Z,36.20
2019-05-02T09:34:22.843Z,34.87
2019-05-02T09:37:12.107Z,37.83
2019-05-02T09:40:06.756Z,40.37
2019-05-02T09:42:57.467Z,36.73
2019-05-02T09:45:44.065Z,40.47
2019-05-02T09:48:34.306Z,39.20
2019-05-02T09:51:23.153Z,38.87
2019-05-02T09:54:12.066Z,43.83
2019-05-02T09:57:02.803Z,37.33
2019-05-02T09:59:50.418Z,36.93
2019-05-02T10:02:35.106Z,34.90
2019-05-02T10:05:23.907Z,37.33
2019-05-02T10:08:13.859Z,37.10
2019-05-02T10:11:03.436Z,37.27
2019-05-02T10:13:55.304Z,35.37
2019-05-02T10:16:43.012Z,32.97
2019-05-02T10:19:32.677Z,35.47
2019-05-02T10:22:23.941Z,40.07
2019-05-02T10:28:49.147Z,36.00
2019-05-02T10:31:35.965Z,33.53
2019-05-02T10:34:22.861Z,35.17
2019-05-02T10:40:17.049Z,31.43
2019-05-02T10:43:03.986Z,30.27
2019-05-02T10:51:57.701Z,29.53
2019-05-02T10:54:46.539Z,31.07
2019-05-02T10:57:35.386Z,38.17
2019-05-02T11:03:43.734Z,33.53
2019-05-02T11:06:29.727Z,34.37
2019-05-02T11:09:24.572Z,44.20
2019-05-02T11:15:44.923Z,35.77
2019-05-02T11:18:52.856Z,32.27
2019-05-02T11:21:53.529Z,37.07
2019-05-02T11:24:32.261Z,30.33
2019-05-02T11:27:22.109Z,35.97
2019-05-02T11:30:12.222Z,34.90
2019-05-02T11:33:03.089Z,34.00
2019-05-02T11:35:53.616Z,38.23
2019-05-02T11:38:46.024Z,42.60
2019-05-02T11:41:34.301Z,34.53
2019-05-02T11:44:23.224Z,35.33
2019-05-02T11:47:12.616Z,35.37
2019-05-02T11:50:02.651Z,32.57
2019-05-02T11:52:52.298Z,31.87
2019-05-02T11:55:43.821Z,32.93
2019-05-02T11:58:32.664Z,33.37
2019-05-02T12:01:35.012Z,31.37
2019-05-02T12:04:16.741Z,31.70
2019-05-02T12:07:04.950Z,29.73
2019-05-02T12:09:56.986Z,29.00
2019-05-02T12:15:58.658Z,28.53
2019-05-02T12:18:47.876Z,32.50
2019-05-02T12:21:39.223Z,26.47
2019-05-02T12:24:27.409Z,28.43
2019-05-02T12:27:16.268Z,32.80
2019-05-02T12:36:19.912Z,27.67
2019-05-02T12:42:37.120Z,28.20
2019-05-02T12:45:25.955Z,26.47
2019-05-02T12:48:14.804Z,21.00
2019-05-02T12:51:03.616Z,21.20
2019-05-02T12:53:52.941Z,20.63
2019-05-02T12:56:43.070Z,18.40
2019-05-02T12:59:25.029Z,17.80
2019-05-02T13:05:23.343Z,19.60
2019-05-02T13:08:12.419Z,19.50
2019-05-02T13:11:22.288Z,15.80
2019-05-02T13:14:19.144Z,16.70
2019-05-02T13:17:05.472Z,18.67
2019-05-02T13:19:57.080Z,16.30
2019-05-02T13:25:52.881Z,18.27
2019-05-02T13:28:44.102Z,23.40
2019-05-02T13:34:48.637Z,18.23
2019-05-02T13:37:37.718Z,18.00
2019-05-02T13:40:45.661Z,17.50
2019-05-02T13:46:34.496Z,20.53
2019-05-02T13:49:23.429Z,15.70
2019-05-02T13:52:12.334Z,18.03
2019-05-02T13:55:01.929Z,20.63
2019-05-02T13:57:53.030Z,16.90
2019-05-02T14:00:37.527Z,22.63
2019-05-02T14:03:26.377Z,17.40
2019-05-02T14:06:15.287Z,18.40
2019-05-02T14:12:52.816Z,15.53
2019-05-02T14:15:42.630Z,16.50
2019-05-02T14:18:33.482Z,21.00
2019-05-02T14:21:22.461Z,15.97
2019-05-02T14:24:12.686Z,18.80
2019-05-02T14:27:02.591Z,23.40
2019-05-02T14:29:52.581Z,18.40
2019-05-02T14:32:42.746Z,19.87
2019-05-02T14:38:32.303Z,24.40
2019-05-02T14:44:59.925Z,27.07
2019-05-02T14:47:22.373Z,30.60
2019-05-02T14:50:23.601Z,32.97
2019-05-02T14:53:24.879Z,31.50
2019-05-02T14:56:32.928Z,30.10
2019-05-02T15:02:15.924Z,28.07
2019-05-02T15:05:29.531Z,25.57
2019-05-02T15:08:16.208Z,26.93
2019-05-02T15:11:05.126Z,30.33
2019-05-02T15:13:53.990Z,34.87
2019-05-02T15:16:45.145Z,28.30
2019-05-02T15:19:33.543Z,32.43
2019-05-02T15:22:22.905Z,31.10
2019-05-02T15:25:17.662Z,32.20
2019-05-02T15:28:03.689Z,30.20
2019-05-02T15:31:11.907Z,29.90
2019-05-02T15:34:19.780Z,34.10
2019-05-02T15:37:08.684Z,31.00
2019-05-02T15:46:03.234Z,40.13
2019-05-02T15:48:52.133Z,29.20
2019-05-02T15:51:43.731Z,29.03
2019-05-02T15:54:32.192Z,27.30
2019-05-02T15:57:24.820Z,27.53
2019-05-02T16:00:10.118Z,34.57
2019-05-02T16:03:01.459Z,41.63
2019-05-02T16:05:49.651Z,40.67
2019-05-02T16:11:52.222Z,38.30
2019-05-02T16:14:38.576Z,26.43
2019-05-02T16:21:04.907Z,33.57
2019-05-02T16:23:32.747Z,30.90
2019-05-02T16:26:17.893Z,35.07
2019-05-02T16:29:28.464Z,39.23
2019-05-02T16:32:37.807Z,34.87
2019-05-02T16:38:35.950Z,34.20
2019-05-02T16:41:24.791Z,40.03
2019-05-02T16:44:13.655Z,42.27
2019-05-02T16:50:35.408Z,34.10
2019-05-02T16:53:24.990Z,33.03
2019-05-02T16:56:12.260Z,34.90
2019-05-02T16:59:02.022Z,30.43
2019-05-02T17:01:42.790Z,29.37
2019-05-02T17:04:31.931Z,32.10
2019-05-02T17:10:37.250Z,40.93
2019-05-02T17:13:27.422Z,31.03
2019-05-02T17:16:17.334Z,26.30
2019-05-02T17:19:07.530Z,19.80
2019-05-02T17:21:56.684Z,20.30
2019-05-02T17:24:47.018Z,26.77
2019-05-02T17:27:35.921Z,25.10
2019-05-02T17:30:24.766Z,23.70
2019-05-02T17:33:16.265Z,20.60
2019-05-02T17:39:19.429Z,20.33
2019-05-02T17:42:08.297Z,17.20
2019-05-02T17:44:37.822Z,21.93
2019-05-02T17:47:30.920Z,19.00
2019-05-02T17:53:49.804Z,18.17
2019-05-02T17:56:36.143Z,16.87
2019-05-02T17:59:28.321Z,18.93
2019-05-02T18:02:14.220Z,18.63
2019-05-02T18:04:59.523Z,20.90
2019-05-02T18:07:48.459Z,23.97
2019-05-02T18:10:37.302Z,22.97
2019-05-02T18:13:29.262Z,22.80
2019-05-02T18:16:16.896Z,24.90
2019-05-02T18:19:05.845Z,23.07
2019-05-02T18:21:58.293Z,20.73
2019-05-02T18:24:46.463Z,30.57
2019-05-02T18:27:35.854Z,20.63
2019-05-02T18:30:26.922Z,23.63
2019-05-02T18:33:15.375Z,27.77
2019-05-02T18:36:04.669Z,23.13
2019-05-02T18:39:00.214Z,23.20
2019-05-02T18:41:46.366Z,21.90
2019-05-02T18:44:35.247Z,26.17
2019-05-02T18:47:24.893Z,28.20
2019-05-02T18:50:36.883Z,30.83
2019-05-02T18:53:27.387Z,26.20
2019-05-02T18:56:16.601Z,25.83
2019-05-02T18:59:05.603Z,20.93
2019-05-02T19:01:51.976Z,22.13
2019-05-02T19:04:39.812Z,24.27
2019-05-02T19:07:32.948Z,22.37
2019-05-02T19:10:19.430Z,25.97
2019-05-02T19:13:08.525Z,20.17
2019-05-02T19:15:57.383Z,22.33
2019-05-02T19:18:48.936Z,23.40
2019-05-02T19:21:39.456Z,25.50
2019-05-02T19:24:34.965Z,23.73
2019-05-02T19:33:29.124Z,20.10
2019-05-02T19:36:24.338Z,22.30
2019-05-02T19:39:09.961Z,24.67
2019-05-02T19:42:01.779Z,22.47
2019-05-02T19:44:52.644Z,22.50
2019-05-02T19:47:42.131Z,20.03
2019-05-02T19:50:52.769Z,23.37
2019-05-02T19:53:42.604Z,21.10
2019-05-02T19:56:43.207Z,23.13
2019-05-02T19:59:34.261Z,25.13
2019-05-02T20:02:16.562Z,27.80
2019-05-02T20:08:24.365Z,20.53
2019-05-02T20:14:46.082Z,21.73
2019-05-02T20:17:32.582Z,23.67
2019-05-02T20:21:02.599Z,20.57
2019-05-02T20:23:52.156Z,22.90
2019-05-02T20:26:41.779Z,22.07
2019-05-02T20:29:32.155Z,21.93
2019-05-02T20:32:22.380Z,23.00
2019-05-02T20:35:12.421Z,26.03
2019-05-02T20:38:01.860Z,27.70
2019-05-02T20:40:52.193Z,21.57
2019-05-02T20:43:44.687Z,21.90
2019-05-02T20:46:32.622Z,24.37
2019-05-02T20:49:22.776Z,23.70
2019-05-02T20:52:12.019Z,22.27
2019-05-02T20:55:02.351Z,26.80
2019-05-02T20:57:52.723Z,23.67
2019-05-02T21:00:42.697Z,22.00
2019-05-02T21:03:25.476Z,25.97
2019-05-02T21:09:33.272Z,28.50
2019-05-02T21:12:22.214Z,27.80
2019-05-02T21:15:12.498Z,22.60
2019-05-02T21:18:02.325Z,19.00
2019-05-02T21:20:52.713Z,20.57
2019-05-02T21:23:47.174Z,20.83
2019-05-02T21:26:32.878Z,15.20
2019-05-02T21:29:22.974Z,11.03
2019-05-02T21:32:12.073Z,13.50
2019-05-02T21:35:02.888Z,11.22
2019-05-02T21:37:52.994Z,11.53
2019-05-02T21:40:42.302Z,12.65
2019-05-02T21:43:32.485Z,14.85
2019-05-02T21:46:22.358Z,12.73
2019-05-02T21:58:07.642Z,19.75
2019-05-02T22:04:18.176Z,9.88
2019-05-02T22:07:07.094Z,10.88
2019-05-02T22:09:55.939Z,9.35
2019-05-02T22:12:44.806Z,11.38
2019-05-02T22:15:33.663Z,9.58
2019-05-02T22:18:22.509Z,9.30
2019-05-02T22:21:12.310Z,10.75
2019-05-02T22:24:10.468Z,9.28
2019-05-02T22:26:52.734Z,9.58
2019-05-02T22:29:43.121Z,10.98
2019-05-02T22:32:32.201Z,10.93
2019-05-02T22:35:21.718Z,8.28
2019-05-02T22:38:31.806Z,10.95
2019-05-02T22:41:22.111Z,10.28
2019-05-02T22:44:12.495Z,9.40
2019-05-02T22:49:52.668Z,8.88
2019-05-02T22:52:41.674Z,8.73
2019-05-02T22:55:31.993Z,8.93
2019-05-02T22:58:22.189Z,7.70
2019-05-02T23:01:11.677Z,8.53
2019-05-02T23:03:53.158Z,8.10
2019-05-02T23:06:44.141Z,7.55
2019-05-02T23:09:32.541Z,8.90
2019-05-02T23:12:22.544Z,9.30
2019-05-02T23:15:12.569Z,13.48
2019-05-02T23:18:02.765Z,8.98
2019-05-02T23:20:52.606Z,8.73
2019-05-02T23:23:42.174Z,9.30
2019-05-02T23:26:51.778Z,14.65
2019-05-02T23:29:42.445Z,9.63
2019-05-02T23:32:31.675Z,9.68
2019-05-02T23:35:21.888Z,11.73
2019-05-02T23:38:12.486Z,8.70
2019-05-02T23:41:02.080Z,9.13
2019-05-02T23:43:52.433Z,10.72
2019-05-02T23:46:42.580Z,10.98
2019-05-02T23:49:32.469Z,10.25
2019-05-02T23:52:22.517Z,9.03
2019-05-02T23:55:12.522Z,10.05
2019-05-02T23:58:02.916Z,10.43
